Time;durP1;ratioP1;P1;durP2;ratioP2;P2;SDS_P1;SDS_P2;PMS_P1;PMS_P2;Temp;Humidity;BMP_temperature;BMP_pressure;BME280_temperature;BME280_humidity;BME280_pressure;Samples;Min_cycle;Max_cycle;Signal;HPM_P1;HPM_P2
2022/05/03 00:00:12;;;;;;;;;2.50;2.50;;;;;19.07;47.39;102076.56;5112986;28;9391;-69
2022/05/03 00:02:56;;;;;;;;;1.00;1.00;;;;;19.07;47.45;102076.56;5094920;28;9733;-69
2022/05/03 00:05:30;;;;;;;;;0.33;0.00;;;;;19.06;47.46;102072.13;5092282;28;9489;-70
2022/05/03 00:08:00;;;;;;;;;2.00;2.00;;;;;19.07;47.36;102078.31;5091466;28;9363;-70
2022/05/03 00:10:57;;;;;;;;;2.00;2.00;;;;;19.07;47.30;102070.38;5092049;28;9403;-70
2022/05/03 00:13:29;;;;;;;;;1.75;1.00;;;;;19.04;47.49;102065.94;5093142;28;9371;-69
2022/05/03 00:15:57;;;;;;;;;2.00;2.00;;;;;19.05;47.40;102062.41;5111368;28;9453;-70
2022/05/03 00:18:23;;;;;;;;;2.00;2.00;;;;;19.04;47.41;102058.00;5112124;28;9408;-70
2022/05/03 00:20:48;;;;;;;;;2.75;2.00;;;;;19.03;47.48;102061.53;5112078;28;9419;-70
2022/05/03 00:23:15;;;;;;;;;0.25;0.25;;;;;19.04;47.51;102065.06;5111269;28;9554;-69
2022/05/03 00:25:41;;;;;;;;;1.00;1.00;;;;;19.03;47.57;102066.81;5112163;28;8862;-69
2022/05/03 00:28:07;;;;;;;;;1.00;1.00;;;;;19.03;47.57;102065.94;5111623;28;9403;-69
2022/05/03 00:30:35;;;;;;;;;2.00;2.00;;;;;19.02;47.32;102066.78;5110822;28;9373;-69
2022/05/03 00:33:05;;;;;;;;;2.00;2.00;;;;;19.00;47.58;102069.44;5110986;28;9519;-69
2022/05/03 00:35:31;;;;;;;;;2.00;2.00;;;;;19.00;47.55;102071.22;5111044;28;9616;-70
2022/05/03 00:37:56;;;;;;;;;1.00;1.00;;;;;18.99;47.14;102069.44;5111522;28;9369;-70
2022/05/03 00:40:22;;;;;;;;;3.00;2.00;;;;;18.99;47.55;102065.03;5111501;28;9450;-69
2022/05/03 00:43:19;;;;;;;;;1.75;1.75;;;;;19.00;47.84;102071.22;5110331;28;8805;-70
2022/05/03 00:45:49;;;;;;;;;1.00;1.00;;;;;18.98;47.70;102070.28;5111300;28;9478;-69
2022/05/03 00:48:45;;;;;;;;;1.25;1.25;;;;;18.98;47.97;102065.00;5111361;28;9479;-69
2022/05/03 00:51:16;;;;;;;;;2.00;2.00;;;;;18.98;47.60;102063.25;5110471;28;9394;-69
2022/05/03 00:54:06;;;;;;;;;2.00;2.00;;;;;18.97;47.88;102064.09;5111493;28;9513;-69
2022/05/03 00:57:09;;;;;;;;;2.00;1.00;;;;;18.97;47.98;102057.97;5111562;28;9665;-69
2022/05/03 00:59:45;;;;;;;;;1.50;1.00;;;;;18.96;47.69;102058.81;5110262;28;9443;-70
2022/05/03 01:02:13;;;;;;;;;2.00;2.00;;;;;18.95;47.81;102059.69;5097839;28;9425;-69
2022/05/03 01:04:56;;;;;;;;;2.50;2.00;;;;;18.95;47.79;102059.69;5090127;28;9491;-69
2022/05/03 01:07:34;;;;;;;;;1.75;1.75;;;;;18.95;47.79;102057.03;5090561;28;9393;-69
2022/05/03 01:09:59;;;;;;;;;2.00;2.00;;;;;18.94;47.70;102056.16;5090151;28;9513;-69
2022/05/03 01:12:24;;;;;;;;;3.50;2.00;;;;;18.93;48.31;102056.16;5089729;28;10289;-69
2022/05/03 01:15:07;;;;;;;;;2.00;2.00;;;;;18.93;47.63;102054.41;5109850;28;8793;-70
2022/05/03 01:17:54;;;;;;;;;2.00;2.00;;;;;18.93;47.80;102057.06;5110874;28;8896;-70
2022/05/03 01:20:50;;;;;;;;;2.00;2.00;;;;;18.93;48.05;102058.81;5110629;28;9271;-69
2022/05/03 01:23:21;;;;;;;;;1.50;1.50;;;;;18.91;47.76;102053.50;5107204;28;9444;-69
2022/05/03 01:26:19;;;;;;;;;2.00;2.00;;;;;18.93;47.94;102053.53;5109759;28;10402;-70
2022/05/03 01:29:23;;;;;;;;;1.50;1.50;;;;;18.91;47.70;102044.66;5110332;28;9517;-69
2022/05/03 01:31:55;;;;;;;;;1.75;1.75;;;;;18.89;47.99;102046.44;5109611;28;9567;-70
2022/05/03 01:34:24;;;;;;;;;1.00;1.00;;;;;18.88;47.80;102042.91;5110476;28;9523;-69
2022/05/03 01:37:17;;;;;;;;;1.50;1.50;;;;;18.87;48.04;102041.13;5110356;28;9468;-69
2022/05/03 01:40:07;;;;;;;;;2.00;2.00;;;;;18.89;47.92;102041.13;5109614;28;9465;-68
2022/05/03 01:43:05;;;;;;;;;1.75;1.50;;;;;18.88;47.79;102052.59;5110131;28;9398;-69
2022/05/03 01:45:54;;;;;;;;;2.00;2.00;;;;;18.87;47.83;102034.94;5037147;28;9513;-69
2022/05/03 01:51:50;;;;;;;;;2.00;2.00;;;;;18.86;47.77;102046.41;5110117;28;9500;-69
2022/05/03 01:54:38;;;;;;;;;2.50;2.50;;;;;18.85;47.77;102047.28;5109641;28;9509;-70
2022/05/03 01:57:21;;;;;;;;;1.50;1.50;;;;;18.83;47.87;102041.97;5109975;28;9559;-69
2022/05/03 02:00:07;;;;;;;;;2.00;2.00;;;;;18.83;47.75;102034.91;5109791;28;9470;-69
2022/05/03 02:03:01;;;;;;;;;4.75;4.75;;;;;18.83;48.13;102040.22;5093475;28;9573;-69
2022/05/03 02:05:59;;;;;;;;;3.00;2.50;;;;;18.81;47.70;102039.34;5089804;28;9462;-69
2022/05/03 02:08:34;;;;;;;;;2.00;2.00;;;;;18.81;47.92;102036.69;5089098;28;9448;-69
2022/05/03 02:11:21;;;;;;;;;3.00;3.00;;;;;18.82;47.92;102033.13;5089328;28;9390;-69
2022/05/03 02:16:53;;;;;;;;;2.00;2.00;;;;;18.82;47.76;102042.84;5109808;28;9409;-69
2022/05/03 02:19:36;;;;;;;;;2.00;2.00;;;;;18.81;47.98;102043.72;5109505;28;9593;-70
2022/05/03 02:22:26;;;;;;;;;3.00;3.00;;;;;18.80;47.98;102050.78;5108556;28;9545;-70
2022/05/03 02:25:03;;;;;;;;;3.25;2.00;;;;;18.78;48.01;102047.22;5109568;28;9376;-69
2022/05/03 02:27:31;;;;;;;;;3.00;3.00;;;;;18.80;47.76;102047.25;5109841;28;9396;-69
2022/05/03 02:29:58;;;;;;;;;3.00;3.00;;;;;18.79;47.97;102048.13;5109115;28;9499;-69
2022/05/03 02:32:34;;;;;;;;;2.25;2.25;;;;;18.80;48.16;102048.13;5110044;28;9470;-69
2022/05/03 02:35:05;;;;;;;;;1.00;1.00;;;;;18.79;48.20;102048.13;5109446;28;9482;-69
2022/05/03 02:37:43;;;;;;;;;2.00;2.00;;;;;18.78;48.15;102044.56;5109595;28;9405;-69
2022/05/03 02:40:11;;;;;;;;;2.25;2.00;;;;;18.78;47.94;102038.44;5109949;28;9565;-69
2022/05/03 02:42:37;;;;;;;;;4.00;2.00;;;;;18.76;47.88;102038.41;5109122;28;9640;-69
2022/05/03 02:45:05;;;;;;;;;2.75;2.00;;;;;18.78;47.99;102039.28;5109542;28;9381;-70
2022/05/03 02:47:48;;;;;;;;;2.00;2.00;;;;;18.77;48.21;102031.34;5109906;28;8781;-70
2022/05/03 02:50:21;;;;;;;;;2.00;2.00;;;;;18.76;47.94;102030.47;5109344;28;9398;-69
2022/05/03 02:52:58;;;;;;;;;2.00;2.00;;;;;18.76;48.03;102034.88;5109973;28;9616;-69
2022/05/03 02:55:31;;;;;;;;;2.00;2.00;;;;;18.75;47.87;102038.38;5110008;28;9455;-69
2022/05/03 02:58:04;;;;;;;;;2.75;2.00;;;;;18.75;48.11;102039.25;5108840;28;9472;-70
2022/05/03 03:03:38;;;;;;;;;2.75;2.00;;;;;18.74;48.24;102032.22;5088653;28;9372;-69
2022/05/03 03:06:04;;;;;;;;;1.00;1.00;;;;;18.73;47.98;102032.19;5089362;28;9476;-69
2022/05/03 03:08:43;;;;;;;;;2.00;2.00;;;;;18.73;48.09;102022.50;5089088;28;9506;-69
2022/05/03 03:11:15;;;;;;;;;2.00;2.00;;;;;18.74;48.16;102034.88;5088469;28;11373;-69
2022/05/03 03:13:56;;;;;;;;;2.00;2.00;;;;;18.73;48.42;102026.91;5099107;28;9344;-68
2022/05/03 03:16:31;;;;;;;;;1.00;1.00;;;;;18.72;48.31;102025.13;5109828;28;9451;-69
2022/05/03 03:18:58;;;;;;;;;2.00;2.00;;;;;18.70;48.19;102027.78;5108276;28;9510;-70
2022/05/03 03:21:31;;;;;;;;;1.75;1.75;;;;;18.71;48.32;102026.88;5109491;28;9595;-69
2022/05/03 03:23:58;;;;;;;;;2.00;2.00;;;;;18.71;47.83;102026.88;5111376;28;9386;-69
2022/05/03 03:26:26;;;;;;;;;2.75;2.75;;;;;18.71;48.19;102029.53;5112517;28;9391;-69
2022/05/03 03:28:53;;;;;;;;;2.00;2.00;;;;;18.69;48.32;102020.72;5112701;28;9592;-69
2022/05/03 03:31:20;;;;;;;;;2.00;2.00;;;;;18.70;48.38;102022.50;5112580;28;9494;-69
2022/05/03 03:33:47;;;;;;;;;1.50;1.00;;;;;18.70;48.04;102022.50;5112803;28;9447;-69
2022/05/03 03:36:14;;;;;;;;;2.00;2.00;;;;;18.68;48.32;102024.22;5112997;28;9383;-69
2022/05/03 03:38:43;;;;;;;;;2.75;1.75;;;;;18.70;48.21;102026.91;5112397;28;9377;-69
2022/05/03 03:41:08;;;;;;;;;2.25;2.00;;;;;18.68;48.15;102018.06;5112737;28;10201;-69
2022/05/03 03:43:34;;;;;;;;;1.00;1.00;;;;;18.70;48.34;102021.59;5112678;28;9464;-69
2022/05/03 03:46:00;;;;;;;;;2.00;2.00;;;;;18.68;48.13;102020.69;5111600;28;8761;-69
2022/05/03 03:48:26;;;;;;;;;2.00;2.00;;;;;18.69;48.11;102018.06;5112641;28;11503;-69
2022/05/03 03:50:54;;;;;;;;;1.00;1.00;;;;;18.66;48.34;102031.28;5112366;28;8774;-69
2022/05/03 03:53:19;;;;;;;;;2.00;2.00;;;;;18.66;48.34;102017.16;5111659;28;8774;-69
2022/05/03 03:55:45;;;;;;;;;4.00;3.00;;;;;18.67;48.33;102024.25;5112040;28;9461;-69
2022/05/03 03:58:11;;;;;;;;;2.00;2.00;;;;;18.67;48.41;102022.44;5112402;28;8846;-69
2022/05/03 04:00:36;;;;;;;;;1.25;1.25;;;;;18.65;48.28;102021.56;5111486;28;8790;-69
2022/05/03 04:03:04;;;;;;;;;3.50;2.00;;;;;18.67;48.43;102026.88;5091380;28;8788;-69
2022/05/03 04:05:30;;;;;;;;;2.50;2.50;;;;;18.65;48.11;102026.84;5091786;28;8984;-70
2022/05/03 04:07:55;;;;;;;;;3.00;3.00;;;;;18.67;48.41;102024.25;5090849;28;9303;-69
2022/05/03 04:10:21;;;;;;;;;3.50;3.50;;;;;18.64;48.41;102019.78;5091702;28;10338;-70
2022/05/03 04:12:47;;;;;;;;;1.25;1.25;;;;;18.63;48.23;102023.28;5093503;28;8779;-69
2022/05/03 04:15:12;;;;;;;;;3.00;3.00;;;;;18.61;48.11;102021.53;5111097;28;8774;-69
2022/05/03 04:17:37;;;;;;;;;3.50;2.00;;;;;18.63;48.38;102022.44;5111892;28;11389;-69
2022/05/03 04:20:03;;;;;;;;;2.50;2.50;;;;;18.64;48.08;102021.53;5111323;28;8817;-69
2022/05/03 04:22:34;;;;;;;;;3.75;3.00;;;;;18.64;48.18;102026.84;5111345;28;8790;-69
2022/05/03 04:25:01;;;;;;;;;1.75;1.75;;;;;18.63;48.17;102025.94;5111685;28;8769;-69
2022/05/03 04:27:27;;;;;;;;;2.50;2.50;;;;;18.65;48.04;102026.84;5112023;28;9453;-69
2022/05/03 04:29:53;;;;;;;;;2.00;2.00;;;;;18.63;48.19;102023.28;5111260;28;9475;-69
2022/05/03 04:32:19;;;;;;;;;2.00;2.00;;;;;18.64;48.25;102019.78;5112229;28;9527;-69
2022/05/03 04:34:45;;;;;;;;;2.25;2.25;;;;;18.62;48.23;102023.31;5110313;28;9456;-69
2022/05/03 04:37:14;;;;;;;;;2.00;2.00;;;;;18.61;48.43;102025.06;5112493;28;9466;-69
2022/05/03 04:39:39;;;;;;;;;4.25;3.00;;;;;18.63;48.28;102027.72;5112258;28;9457;-69
2022/05/03 04:42:05;;;;;;;;;2.25;2.25;;;;;18.62;48.33;102031.25;5110359;28;9589;-70
2022/05/03 04:44:31;;;;;;;;;2.00;2.00;;;;;18.62;48.23;102028.59;5112112;28;8782;-70
2022/05/03 04:46:56;;;;;;;;;3.00;2.00;;;;;18.60;48.35;102027.69;5111983;28;11021;-70
2022/05/03 04:49:21;;;;;;;;;1.75;1.75;;;;;18.59;48.20;102024.19;5111605;28;8785;-70
2022/05/03 04:51:47;;;;;;;;;3.00;2.00;;;;;18.62;48.37;102029.50;5111043;28;8845;-70
2022/05/03 04:54:12;;;;;;;;;2.00;2.00;;;;;18.59;48.38;102025.94;5111281;28;8773;-70
2022/05/03 04:56:37;;;;;;;;;2.00;2.00;;;;;18.60;48.59;102027.69;5110434;28;8806;-70
2022/05/03 04:59:03;;;;;;;;;1.75;1.75;;;;;18.63;48.58;102019.78;5111029;28;8916;-70
2022/05/03 05:01:29;;;;;;;;;1.00;1.00;;;;;18.63;48.14;102025.94;5104256;28;8816;-70
2022/05/03 05:03:55;;;;;;;;;1.00;1.00;;;;;18.65;48.40;102031.25;5090697;28;9914;-70
2022/05/03 05:06:20;;;;;;;;;1.00;1.00;;;;;18.68;48.19;102040.09;5091425;28;9617;-70
2022/05/03 05:08:48;;;;;;;;;2.00;2.00;;;;;18.70;48.45;102040.13;5091431;28;8802;-70
2022/05/03 05:11:14;;;;;;;;;2.25;2.25;;;;;18.69;48.30;102033.94;5090685;28;8796;-70
2022/05/03 05:13:39;;;;;;;;;3.00;2.50;;;;;18.70;48.57;102045.41;5100572;28;9388;-69
2022/05/03 05:16:06;;;;;;;;;2.75;2.75;;;;;18.72;48.19;102038.38;5111573;28;8773;-70
2022/05/03 05:18:32;;;;;;;;;1.00;1.00;;;;;18.74;50.49;102047.22;5110767;28;8762;-70
2022/05/03 05:20:58;;;;;;;;;3.50;2.50;;;;;18.82;52.62;102048.13;5111161;28;9380;-70
2022/05/03 05:23:23;;;;;;;;;3.00;2.00;;;;;18.95;56.52;102047.34;5111174;28;11354;-70
2022/05/03 05:25:49;;;;;;;;;4.00;3.00;;;;;19.02;54.50;102057.09;5109606;28;8798;-68
2022/05/03 05:28:17;;;;;;;;;5.00;4.25;;;;;19.10;54.09;102055.38;5110821;28;8781;-70
2022/05/03 05:30:43;;;;;;;;;3.75;3.75;;;;;19.18;55.13;102056.31;5110813;28;10583;-69
2022/05/03 05:33:09;;;;;;;;;3.25;3.25;;;;;19.24;56.06;102056.34;5109993;28;9497;-69
2022/05/03 05:35:35;;;;;;;;;2.25;2.25;;;;;19.31;58.55;102051.94;5110837;28;8770;-69
2022/05/03 05:38:01;;;;;;;;;5.25;3.75;;;;;19.37;59.87;102049.34;5109720;28;8787;-69
2022/05/03 05:40:26;;;;;;;;;4.25;4.00;;;;;19.41;57.08;102051.16;5110502;28;9462;-69
2022/05/03 05:42:55;;;;;;;;;10.00;4.25;;;;;19.35;59.35;102050.19;5109937;28;8821;-71
2022/05/03 05:45:20;;;;;;;;;5.00;4.75;;;;;19.44;63.15;102050.28;5109695;28;8843;-72
2022/05/03 05:47:46;;;;;;;;;5.75;4.75;;;;;19.46;63.91;102049.41;5109788;28;9466;-71
2022/05/03 05:50:11;;;;;;;;;7.75;5.50;;;;;19.21;61.32;102060.72;5110366;28;8765;-71
2022/05/03 05:55:22;;;;;;;;;13.00;10.75;;;;;19.21;56.54;102055.44;5088679;28;8771;-70
2022/05/03 05:57:47;;;;;;;;;12.75;12.00;;;;;19.28;55.41;102047.53;5089141;28;9918;-70
2022/05/03 06:00:13;;;;;;;;;20.75;19.50;;;;;19.30;54.48;102058.16;5088968;28;8786;-71
2022/05/03 06:02:39;;;;;;;;;21.25;20.50;;;;;19.28;54.26;102051.94;5081517;28;9048;-70
2022/05/03 06:05:05;;;;;;;;;23.75;22.25;;;;;19.27;53.76;102050.19;5069065;28;10182;-70
2022/05/03 06:07:31;;;;;;;;;21.50;20.00;;;;;19.25;54.02;102055.47;5068833;28;8792;-71
2022/05/03 06:09:56;;;;;;;;;24.50;23.75;;;;;19.23;53.72;102051.91;5069325;28;10476;-71
2022/05/03 06:12:21;;;;;;;;;21.75;20.50;;;;;19.21;52.78;102047.50;5069405;28;8885;-71
2022/05/03 06:14:49;;;;;;;;;23.75;20.25;;;;;19.20;51.60;102051.91;5106179;28;8790;-70
2022/05/03 06:17:14;;;;;;;;;19.75;19.75;;;;;19.18;52.32;102056.31;5110048;28;8782;-72
2022/05/03 06:19:39;;;;;;;;;22.50;19.50;;;;;19.20;52.25;102065.13;5109434;28;10081;-72
2022/05/03 06:22:05;;;;;;;;;25.75;25.75;;;;;19.19;51.24;102059.84;5108981;28;8798;-72
2022/05/03 06:24:30;;;;;;;;;27.00;23.25;;;;;19.07;52.37;102060.66;5109778;28;8784;-71
2022/05/03 06:26:58;;;;;;;;;30.50;29.25;;;;;18.92;51.29;102062.31;5109554;28;9518;-71
2022/05/03 06:29:24;;;;;;;;;30.75;27.25;;;;;19.00;52.52;102061.50;5108838;28;8766;-71
2022/05/03 06:31:50;;;;;;;;;28.75;26.00;;;;;19.04;52.00;102067.72;5109425;28;10583;-71
2022/05/03 06:34:16;;;;;;;;;39.75;35.75;;;;;19.03;51.12;102065.94;5108953;28;9504;-71
2022/05/03 06:36:41;;;;;;;;;29.25;27.50;;;;;18.97;50.34;102069.41;5109422;28;10775;-71
2022/05/03 06:39:06;;;;;;;;;31.75;28.50;;;;;19.02;51.24;102070.34;5109464;28;8909;-71
2022/05/03 06:41:32;;;;;;;;;36.00;34.00;;;;;19.01;50.40;102073.00;5108835;28;8801;-71
2022/05/03 06:43:58;;;;;;;;;33.50;31.50;;;;;18.98;50.51;102071.19;5109481;28;8873;-70
2022/05/03 06:46:24;;;;;;;;;28.75;28.00;;;;;19.00;50.80;102071.22;5109611;28;8765;-70
2022/05/03 06:48:50;;;;;;;;;36.25;31.75;;;;;18.95;50.69;102065.88;5108512;28;10963;-71
2022/05/03 06:51:15;;;;;;;;;33.00;31.00;;;;;18.96;50.84;102072.06;5103820;28;10803;-71
2022/05/03 06:53:41;;;;;;;;;28.25;28.25;;;;;18.98;50.69;102076.47;5089005;28;8899;-70
2022/05/03 06:56:06;;;;;;;;;35.75;34.00;;;;;19.01;50.25;102073.00;5088293;28;8892;-71
2022/05/03 06:58:32;;;;;;;;;28.25;26.75;;;;;18.93;50.75;102072.03;5090734;28;10805;-71
2022/05/03 07:00:57;;;;;;;;;39.25;35.75;;;;;18.94;50.83;102073.78;5092244;28;8826;-72
2022/05/03 07:03:22;;;;;;;;;33.25;32.25;;;;;18.93;50.79;102079.97;5092167;28;8767;-72
2022/05/03 07:05:48;;;;;;;;;35.50;33.25;;;;;18.93;50.78;102072.03;5092690;28;9619;-72
2022/05/03 07:08:13;;;;;;;;;34.25;30.00;;;;;18.91;50.99;102079.06;5092895;28;8791;-72
2022/05/03 07:10:40;;;;;;;;;24.00;23.50;;;;;18.88;51.55;102077.28;5091943;28;8792;-72
2022/05/03 07:13:12;;;;;;;;;27.75;24.75;;;;;18.88;51.26;102077.28;5097359;28;8758;-72
2022/05/03 07:15:37;;;;;;;;;20.75;20.50;;;;;18.94;51.40;102076.44;5113019;28;10507;-71
2022/05/03 07:23:31;;;;;;;;;30.00;28.50;;;;;18.96;51.29;102086.19;5107893;28;10579;-72
2022/05/03 07:25:57;;;;;;;;;27.75;26.00;;;;;19.00;51.07;102077.38;5094775;28;10622;-71
2022/05/03 07:28:22;;;;;;;;;24.75;23.00;;;;;18.95;51.09;102079.09;5091911;28;8791;-71
2022/05/03 07:30:47;;;;;;;;;30.75;27.75;;;;;18.89;50.95;102079.06;5091065;28;10759;-72
2022/05/03 07:33:13;;;;;;;;;27.00;25.00;;;;;18.88;51.43;102085.25;5091719;28;8898;-73
2022/05/03 07:35:38;;;;;;;;;28.00;27.00;;;;;18.90;51.03;102079.94;5092154;28;8841;-74
2022/05/03 07:38:03;;;;;;;;;29.00;26.75;;;;;18.87;50.89;102083.47;5091122;28;8807;-74
2022/05/03 07:40:29;;;;;;;;;27.25;25.00;;;;;18.86;50.75;102086.13;5090572;28;9479;-73
2022/05/03 07:42:54;;;;;;;;;26.25;25.50;;;;;18.88;50.83;102087.00;5091646;28;8949;-72
2022/05/03 07:45:20;;;;;;;;;24.50;24.50;;;;;18.88;50.94;102085.25;5091022;28;8792;-72
2022/05/03 07:47:45;;;;;;;;;31.75;28.50;;;;;18.87;50.81;102087.84;5091325;28;8787;-73
2022/05/03 07:50:11;;;;;;;;;23.25;22.25;;;;;18.89;50.73;102089.66;5091216;28;8891;-74
2022/05/03 07:52:36;;;;;;;;;27.50;24.50;;;;;18.91;50.73;102087.91;5090548;28;8939;-73
2022/05/03 07:55:03;;;;;;;;;25.25;24.00;;;;;18.92;51.08;102088.78;5091185;28;8800;-74
2022/05/03 07:57:29;;;;;;;;;22.00;22.00;;;;;18.97;50.86;102095.88;5099565;28;8832;-73
2022/05/03 07:59:55;;;;;;;;;24.00;24.00;;;;;18.94;50.88;102090.56;5095497;28;10350;-73
2022/05/03 08:02:23;;;;;;;;;20.75;20.75;;;;;18.97;50.82;102095.88;5093589;28;8831;-73
2022/05/03 08:04:50;;;;;;;;;20.50;18.75;;;;;18.98;50.89;102088.81;5091710;28;8764;-73
2022/05/03 08:07:16;;;;;;;;;21.00;21.00;;;;;18.97;50.98;102089.72;5091311;28;10174;-74
2022/05/03 08:09:41;;;;;;;;;20.75;20.25;;;;;18.94;51.11;102092.31;5089968;28;10125;-73
2022/05/03 08:12:07;;;;;;;;;17.75;16.75;;;;;18.97;51.09;102090.56;5091139;28;8792;-72
2022/05/03 08:14:32;;;;;;;;;19.25;19.25;;;;;18.87;51.14;102091.41;5090912;28;9644;-73
2022/05/03 08:16:58;;;;;;;;;22.50;19.50;;;;;18.80;51.63;102093.13;5090992;28;8847;-73
2022/05/03 08:19:23;;;;;;;;;20.00;20.00;;;;;18.74;51.66;102097.47;5089764;28;8824;-72
2022/05/03 08:21:49;;;;;;;;;18.25;18.00;;;;;18.73;52.02;102093.06;5090326;28;8881;-72
2022/05/03 08:24:14;;;;;;;;;22.00;20.00;;;;;18.80;51.91;102095.75;5091406;28;9516;-72
2022/05/03 08:26:39;;;;;;;;;21.25;20.25;;;;;18.87;51.51;102095.78;5091016;28;8816;-73
2022/05/03 08:29:05;;;;;;;;;22.50;22.50;;;;;18.78;51.71;102104.56;5088542;28;8806;-72
2022/05/03 08:31:30;;;;;;;;;20.75;18.50;;;;;18.75;51.90;102109.81;5090618;28;8804;-73
2022/05/03 08:33:55;;;;;;;;;22.50;19.75;;;;;18.73;51.96;102109.81;5089989;28;8768;-73
2022/05/03 08:36:21;;;;;;;;;17.75;17.00;;;;;18.82;51.82;102114.28;5090960;28;8800;-73
2022/05/03 08:44:14;;;;;;;;;16.75;16.50;;;;;18.85;51.77;102109.03;5090697;28;10227;-73
2022/05/03 08:46:42;;;;;;;;;19.50;18.00;;;;;18.75;52.03;102109.81;5090766;28;10219;-73
2022/05/03 08:49:13;;;;;;;;;24.00;22.00;;;;;18.74;52.12;102113.34;5088385;28;8791;-73
2022/05/03 08:51:42;;;;;;;;;18.50;18.50;;;;;18.78;52.03;102112.50;5090427;28;10323;-72
2022/05/03 08:54:08;;;;;;;;;24.50;19.50;;;;;18.83;51.81;102108.13;5090432;28;10269;-73
2022/05/03 08:56:33;;;;;;;;;19.50;17.75;;;;;18.87;51.75;102109.03;5091493;28;10190;-73
2022/05/03 08:59:00;;;;;;;;;20.25;17.75;;;;;18.89;51.66;102108.19;5111132;28;10169;-73
2022/05/03 09:01:25;;;;;;;;;22.25;19.00;;;;;18.89;51.89;102112.59;5102645;28;9001;-73
2022/05/03 09:03:51;;;;;;;;;19.00;18.00;;;;;18.93;51.72;102104.69;5089540;28;10272;-73
2022/05/03 09:06:18;;;;;;;;;22.25;19.50;;;;;18.95;51.59;102112.63;5090504;28;9332;-73
2022/05/03 09:08:49;;;;;;;;;18.75;18.50;;;;;18.87;51.86;102109.03;5090656;28;10266;-73
2022/05/03 09:11:16;;;;;;;;;19.00;19.00;;;;;18.86;51.71;102109.94;5087821;28;10170;-73
2022/05/03 09:13:43;;;;;;;;;17.75;17.75;;;;;18.81;52.08;102121.34;5100397;28;10124;-73
2022/05/03 09:16:16;;;;;;;;;18.50;16.50;;;;;18.82;51.82;102120.47;5099608;28;10131;-73
2022/05/03 09:18:43;;;;;;;;;23.25;18.75;;;;;18.87;52.03;102114.31;5090232;28;10336;-73
2022/05/03 09:24:07;;;;;;;;;18.75;17.75;;;;;18.91;51.87;102117.00;5089241;28;10157;-73
2022/05/03 09:26:33;;;;;;;;;20.75;17.75;;;;;19.01;51.68;102113.53;5090074;28;10264;-74
2022/05/03 09:29:03;;;;;;;;;24.00;21.50;;;;;19.11;52.23;102111.88;5089849;28;8838;-73
2022/05/03 09:31:37;;;;;;;;;18.75;18.50;;;;;19.15;52.27;102108.38;5087467;28;10156;-73
2022/05/03 09:34:27;;;;;;;;;22.75;18.75;;;;;19.07;54.46;102108.31;5086995;28;10251;-73
2022/05/03 09:37:02;;;;;;;;;15.50;14.75;;;;;19.06;53.80;102121.53;5089169;28;10125;-74
2022/05/03 09:39:37;;;;;;;;;16.00;14.00;;;;;19.06;53.96;102111.84;5089505;28;10096;-73
2022/05/03 09:42:10;;;;;;;;;17.75;16.00;;;;;19.09;52.75;102117.13;5088888;28;10528;-73
2022/05/03 09:44:37;;;;;;;;;15.50;13.75;;;;;19.09;54.84;102121.53;5088149;28;10127;-73
2022/05/03 09:47:09;;;;;;;;;20.25;16.75;;;;;19.07;54.49;102115.38;5089069;28;9962;-73
2022/05/03 09:49:37;;;;;;;;;15.50;14.50;;;;;19.04;54.34;102113.59;5089691;28;10088;-73
2022/05/03 09:52:04;;;;;;;;;16.75;13.25;;;;;19.10;53.22;102120.69;5088255;28;10571;-73
2022/05/03 09:54:49;;;;;;;;;13.50;12.50;;;;;19.05;55.21;102112.69;5087847;28;9948;-73
2022/05/03 09:57:22;;;;;;;;;17.25;16.75;;;;;19.04;54.47;102108.31;5089386;28;10018;-73
2022/05/03 09:59:52;;;;;;;;;15.00;13.00;;;;;19.09;54.02;102114.50;5088680;28;10092;-72
2022/05/03 10:02:19;;;;;;;;;17.25;17.25;;;;;19.13;53.63;102110.09;5102939;28;10288;-74
2022/05/03 10:04:48;;;;;;;;;15.50;13.00;;;;;19.10;55.54;102110.97;5109462;28;9927;-73
2022/05/03 10:07:15;;;;;;;;;13.50;12.50;;;;;19.09;55.53;102105.66;5091201;28;9892;-74
2022/05/03 10:09:42;;;;;;;;;17.00;15.50;;;;;19.12;54.26;102113.66;5088566;28;10504;-74
2022/05/03 10:12:08;;;;;;;;;16.25;13.50;;;;;19.16;54.65;102112.75;5089144;28;9873;-73
2022/05/03 10:14:34;;;;;;;;;13.25;12.50;;;;;19.13;56.03;102107.47;5088610;28;10013;-73
2022/05/03 10:22:37;;;;;;;;;16.25;15.25;;;;;19.20;53.64;102104.84;5089402;28;10727;-74
2022/05/03 10:25:04;;;;;;;;;12.00;11.00;;;;;19.20;53.34;102110.16;5089221;28;10045;-74
2022/05/03 10:27:30;;;;;;;;;13.50;12.00;;;;;19.21;53.11;102113.69;5088872;28;9850;-73
2022/05/03 10:30:19;;;;;;;;;14.00;13.00;;;;;19.21;53.23;102111.03;5089450;28;9945;-72
2022/05/03 10:32:44;;;;;;;;;13.00;12.25;;;;;19.19;53.42;102105.75;5091375;28;9794;-73
2022/05/03 10:35:32;;;;;;;;;12.75;11.50;;;;;19.20;53.50;102115.44;5093095;28;9770;-73
2022/05/03 10:38:04;;;;;;;;;13.00;12.00;;;;;19.19;53.19;102102.22;5093202;28;8806;-73
2022/05/03 10:40:31;;;;;;;;;5.75;5.75;;;;;19.21;53.50;102105.75;5092875;28;10190;-73
2022/05/03 10:43:05;;;;;;;;;8.25;6.00;;;;;19.22;53.27;102108.41;5093177;28;9982;-73
2022/05/03 10:45:30;;;;;;;;;13.25;11.75;;;;;19.21;53.51;102108.41;5093444;28;9761;-73
2022/05/03 10:47:55;;;;;;;;;11.00;11.00;;;;;19.23;53.28;102104.88;5092466;28;9929;-73
2022/05/03 10:50:32;;;;;;;;;10.75;10.00;;;;;19.24;53.49;102113.69;5093309;28;8908;-72
2022/05/03 10:53:02;;;;;;;;;11.75;10.50;;;;;19.23;53.52;102109.31;5093134;28;8783;-73
2022/05/03 10:55:29;;;;;;;;;11.00;11.00;;;;;19.22;53.60;102105.78;5092661;28;9771;-73
2022/05/03 10:58:35;;;;;;;;;13.25;12.75;;;;;19.21;53.64;102106.63;5093032;28;9825;-74
2022/05/03 11:01:04;;;;;;;;;13.00;11.25;;;;;19.22;53.71;102110.19;5030278;28;9803;-73
2022/05/03 11:03:31;;;;;;;;;12.25;11.75;;;;;19.20;54.24;102109.25;5029738;28;9936;-73
2022/05/03 11:06:18;;;;;;;;;11.50;11.00;;;;;19.21;54.28;102109.28;5051664;28;10413;-73
2022/05/03 11:11:46;;;;;;;;;12.00;12.00;;;;;19.20;54.18;102106.63;5092850;28;9967;-73
2022/05/03 11:14:15;;;;;;;;;10.50;10.25;;;;;19.21;54.20;102106.63;5106505;28;10054;-73
2022/05/03 11:16:41;;;;;;;;;12.00;12.00;;;;;19.19;54.28;102100.47;5101296;28;9802;-73
2022/05/03 11:19:12;;;;;;;;;12.75;12.75;;;;;19.20;54.24;102099.56;5090365;28;9908;-73
2022/05/03 11:21:38;;;;;;;;;12.00;11.00;;;;;19.22;54.09;102099.59;5092360;28;10102;-73
2022/05/03 11:24:04;;;;;;;;;10.25;10.25;;;;;19.22;54.26;102099.59;5091480;28;9890;-73
2022/05/03 11:26:30;;;;;;;;;10.75;10.25;;;;;19.23;53.99;102094.28;5092271;28;8814;-73
2022/05/03 11:29:01;;;;;;;;;10.75;10.75;;;;;19.25;54.00;102091.66;5091494;28;11591;-71
2022/05/03 11:31:26;;;;;;;;;11.75;11.75;;;;;19.25;54.02;102094.31;5090573;28;8784;-73
2022/05/03 11:33:56;;;;;;;;;11.75;11.75;;;;;19.24;54.32;102093.41;5091799;28;9854;-72
2022/05/03 11:36:22;;;;;;;;;11.00;11.00;;;;;19.25;54.26;102087.25;5092104;28;8878;-72
2022/05/03 11:38:49;;;;;;;;;11.00;11.00;;;;;19.26;54.22;102088.13;5090731;28;9873;-72
2022/05/03 11:41:15;;;;;;;;;11.75;10.25;;;;;19.27;54.59;102089.91;5090264;28;9867;-72
2022/05/03 11:43:40;;;;;;;;;11.00;11.00;;;;;19.27;54.72;102093.41;5090668;28;9964;-72
2022/05/03 11:46:06;;;;;;;;;14.75;13.75;;;;;19.27;54.79;102088.13;5091536;28;8810;-73
2022/05/03 11:48:31;;;;;;;;;13.00;13.00;;;;;19.27;54.73;102090.78;5091845;28;8776;-72
2022/05/03 11:56:26;;;;;;;;;13.00;12.00;;;;;19.29;55.07;102088.16;5083986;28;10653;-72
2022/05/03 11:58:52;;;;;;;;;14.75;13.00;;;;;19.27;55.31;102080.19;5071217;28;9953;-72
2022/05/03 12:01:21;;;;;;;;;12.50;12.50;;;;;19.28;54.92;102087.25;5089841;28;9920;-72
2022/05/03 12:03:49;;;;;;;;;12.25;12.25;;;;;19.29;54.96;102078.44;5091149;28;8816;-72
2022/05/03 12:06:15;;;;;;;;;13.25;12.25;;;;;19.29;55.12;102085.50;5090359;28;10720;-72
2022/05/03 12:08:41;;;;;;;;;11.00;11.00;;;;;19.28;55.13;102081.97;5091612;28;9776;-72
2022/05/03 12:11:28;;;;;;;;;11.00;11.00;;;;;19.29;55.27;102077.56;5089029;28;11473;-72
2022/05/03 12:13:54;;;;;;;;;11.00;11.00;;;;;19.29;55.23;102085.50;5102017;28;8782;-72
2022/05/03 12:16:22;;;;;;;;;13.75;12.25;;;;;19.29;55.52;102081.09;5112705;28;9531;-72